createdAt,value
2022-12-01T00:01:19.603Z,97008.41
2022-12-01T00:03:46.859Z,97005.78
2022-12-01T00:06:16.728Z,97002.38
2022-12-01T00:09:05.926Z,97006.25
2022-12-01T00:11:34.913Z,96997.84
2022-12-01T00:14:02.258Z,97002.88
2022-12-01T00:16:30.243Z,96999.47
2022-12-01T00:18:57.330Z,96999.88
2022-12-01T00:21:26.048Z,96999.13
2022-12-01T00:23:55.622Z,96993.00
2022-12-01T00:26:24.188Z,96996.56
2022-12-01T00:28:56.320Z,97001.19
2022-12-01T00:31:23.733Z,97004.28
2022-12-01T00:33:50.960Z,96998.50
2022-12-01T00:36:18.498Z,96999.66
2022-12-01T00:38:46.253Z,96995.47
2022-12-01T00:41:14.163Z,96991.25
2022-12-01T00:43:41.392Z,96990.97
2022-12-01T00:46:09.045Z,97002.88
2022-12-01T00:48:36.165Z,96996.00
2022-12-01T00:51:03.659Z,96993.31
2022-12-01T00:53:30.881Z,96994.41
2022-12-01T00:55:58.259Z,96986.41
2022-12-01T00:58:25.414Z,96994.06
2022-12-01T01:01:00.436Z,96991.81
2022-12-01T01:03:28.454Z,96986.88
2022-12-01T01:05:55.980Z,96985.25
2022-12-01T01:08:23.544Z,96990.28
2022-12-01T01:10:51.863Z,96992.78
2022-12-01T01:13:19.069Z,96985.91
2022-12-01T01:15:46.388Z,96986.97
2022-12-01T01:18:13.436Z,96989.66
2022-12-01T01:20:40.482Z,96988.88
2022-12-01T01:23:07.557Z,96996.19
2022-12-01T01:25:35.002Z,96992.44
2022-12-01T01:28:02.092Z,96990.94
2022-12-01T01:30:29.378Z,96990.19
2022-12-01T01:32:56.772Z,96996.00
2022-12-01T01:35:23.836Z,97002.09
2022-12-01T01:37:52.102Z,97006.63
2022-12-01T01:40:19.408Z,97003.19
2022-12-01T01:42:46.682Z,97003.63
2022-12-01T01:45:25.598Z,97002.09
2022-12-01T01:47:54.307Z,97016.28
2022-12-01T01:50:25.643Z,97006.00
2022-12-01T01:53:02.873Z,97002.97
2022-12-01T01:55:32.419Z,96998.78
2022-12-01T01:58:00.293Z,97010.28
2022-12-01T02:00:27.803Z,97003.50
2022-12-01T02:03:00.554Z,97008.13
2022-12-01T02:05:31.312Z,97009.28
2022-12-01T02:08:00.712Z,97012.84
2022-12-01T02:10:40.036Z,97006.28
2022-12-01T02:13:39.518Z,97006.59
2022-12-01T02:16:09.571Z,97008.13
2022-12-01T02:18:45.200Z,97007.34
2022-12-01T02:21:47.070Z,97003.50
2022-12-01T02:24:46.083Z,97001.97
2022-12-01T02:27:22.080Z,97004.38
2022-12-01T02:30:06.973Z,97001.97
2022-12-01T02:32:39.772Z,96998.22
2022-12-01T02:35:32.348Z,96995.53
2022-12-01T02:38:24.005Z,96998.13
2022-12-01T02:41:05.589Z,96996.94
2022-12-01T02:43:54.890Z,96996.59
2022-12-01T02:46:25.106Z,96996.31
2022-12-01T02:48:57.774Z,96987.03
2022-12-01T02:51:31.337Z,96993.94
2022-12-01T02:54:00.418Z,96998.88
2022-12-01T02:56:27.788Z,96996.94
2022-12-01T02:58:55.527Z,96997.47
2022-12-01T03:01:22.540Z,96997.47
2022-12-01T03:03:58.950Z,97002.09
2022-12-01T03:06:54.487Z,96991.34
2022-12-01T03:09:35.646Z,97001.34
2022-12-01T03:12:20.444Z,96996.72
2022-12-01T03:15:27.588Z,96992.94
2022-12-01T03:18:06.721Z,96992.63
2022-12-01T03:21:02.918Z,96998.00
2022-12-01T03:23:34.119Z,96997.56
2022-12-01T03:26:08.626Z,96999.19
2022-12-01T03:28:41.958Z,96991.53
2022-12-01T03:31:14.741Z,96998.09
2022-12-01T03:33:51.032Z,96988.53
2022-12-01T03:36:38.830Z,96998.09
2022-12-01T03:39:11.952Z,96994.63
2022-12-01T03:41:44.057Z,96998.53
2022-12-01T03:44:19.675Z,96993.16
2022-12-01T03:46:59.407Z,96996.59
2022-12-01T03:49:27.143Z,97003.16
2022-12-01T03:52:19.930Z,96998.94
2022-12-01T03:54:52.356Z,96995.94
2022-12-01T03:57:29.680Z,97002.91
2022-12-01T03:59:57.040Z,96994.00
2022-12-01T04:02:27.959Z,97004.44
2022-12-01T04:04:55.086Z,97002.56
2022-12-01T04:07:23.636Z,97012.16
2022-12-01T04:09:51.431Z,97007.63
2022-12-01T04:12:30.599Z,97008.41
2022-12-01T04:14:58.530Z,97010.41
2022-12-01T04:17:28.950Z,97010.41
2022-12-01T04:19:56.816Z,97018.16
2022-12-01T04:22:24.796Z,97014.06
2022-12-01T04:24:52.973Z,97017.91
2022-12-01T04:27:20.662Z,97009.09
2022-12-01T04:29:48.256Z,97007.69
2022-12-01T04:32:15.480Z,97010.78
2022-12-01T04:34:42.671Z,97015.50
2022-12-01T04:37:10.287Z,97015.59
2022-12-01T04:39:38.109Z,97008.72
2022-12-01T04:42:05.848Z,97021.72
2022-12-01T04:44:35.002Z,97021.72
2022-12-01T04:47:03.748Z,97021.41
2022-12-01T04:49:31.654Z,97013.75
2022-12-01T04:51:58.648Z,97015.44
2022-12-01T04:54:27.019Z,97020.81
2022-12-01T04:56:54.022Z,97022.44
2022-12-01T04:59:21.350Z,97027.69
2022-12-01T05:01:48.516Z,97023.59
2022-12-01T05:04:16.001Z,97023.59
2022-12-01T05:06:43.791Z,97023.69
2022-12-01T05:09:17.475Z,97022.50
2022-12-01T05:11:45.331Z,97025.63
2022-12-01T05:14:12.366Z,97021.84
2022-12-01T05:16:39.615Z,97011.75
2022-12-01T05:19:25.349Z,97020.69
2022-12-01T05:21:53.158Z,97016.13
2022-12-01T05:24:21.471Z,97015.47
2022-12-01T05:26:49.090Z,97016.66
2022-12-01T05:29:16.181Z,97020.94
2022-12-01T05:31:43.388Z,97025.97
2022-12-01T05:34:10.520Z,97023.72
2022-12-01T05:36:37.796Z,97026.41
2022-12-01T05:39:05.394Z,97023.72
2022-12-01T05:41:32.836Z,97032.59
2022-12-01T05:43:59.906Z,97018.88
2022-12-01T05:46:27.059Z,97018.94
2022-12-01T05:48:54.144Z,97023.88
2022-12-01T05:51:21.389Z,97015.50
2022-12-01T05:53:48.495Z,97018.19
2022-12-01T05:56:16.000Z,97009.47
2022-12-01T05:58:43.145Z,97021.31
2022-12-01T06:01:10.924Z,97014.84
2022-12-01T06:03:37.938Z,97020.19
2022-12-01T06:06:05.312Z,97017.53
2022-12-01T06:08:32.850Z,97028.66
2022-12-01T06:11:00.107Z,97025.25
2022-12-01T06:13:27.482Z,97029.09
2022-12-01T06:16:03.808Z,97023.28
2022-12-01T06:18:37.124Z,97021.88
2022-12-01T06:21:06.562Z,97033.78
2022-12-01T06:23:34.370Z,97032.28
2022-12-01T06:26:03.396Z,97028.09
2022-12-01T06:28:30.613Z,97033.13
2022-12-01T06:31:02.904Z,97040.00
2022-12-01T06:33:32.114Z,97032.09
2022-12-01T06:36:04.690Z,97024.81
2022-12-01T06:38:34.395Z,97031.78
2022-12-01T06:41:02.392Z,97038.31
2022-12-01T06:43:30.068Z,97039.91
2022-12-01T06:46:01.743Z,97033.09
2022-12-01T06:48:29.140Z,97032.69
2022-12-01T06:51:00.306Z,97035.03
2022-12-01T06:53:28.876Z,97039.22
2022-12-01T06:56:06.071Z,97041.75
2022-12-01T06:58:36.369Z,97037.94
2022-12-01T07:01:12.608Z,97046.00
2022-12-01T07:03:39.921Z,97043.75
2022-12-01T07:06:07.211Z,97048.00
2022-12-01T07:08:34.713Z,97051.03
2022-12-01T07:11:07.708Z,97047.69
2022-12-01T07:13:36.125Z,97049.63
2022-12-01T07:16:04.155Z,97058.16
2022-12-01T07:18:33.210Z,97054.38
2022-12-01T07:21:07.830Z,97064.28
2022-12-01T07:23:35.430Z,97053.28
2022-12-01T07:26:08.612Z,97061.25
2022-12-01T07:28:35.794Z,97062.16
2022-12-01T07:31:07.096Z,97068.25
2022-12-01T07:33:35.462Z,97074.03
2022-12-01T07:36:03.305Z,97074.78
2022-12-01T07:38:32.315Z,97074.47
2022-12-01T07:41:16.624Z,97079.84
2022-12-01T07:43:43.707Z,97084.50
2022-12-01T07:46:17.362Z,97084.09
2022-12-01T07:48:49.111Z,97081.84
2022-12-01T07:51:16.938Z,97088.38
2022-12-01T07:53:45.247Z,97087.59
2022-12-01T07:56:13.336Z,97088.00
2022-12-01T07:58:40.973Z,97091.09
2022-12-01T08:01:13.645Z,97091.44
2022-12-01T08:03:41.477Z,97088.09
2022-12-01T08:06:09.721Z,97094.22
2022-12-01T08:08:38.686Z,97087.34
2022-12-01T08:11:18.100Z,97101.13
2022-12-01T08:13:45.740Z,97099.56
2022-12-01T08:16:15.985Z,97094.25
2022-12-01T08:18:44.128Z,97100.81
2022-12-01T08:21:14.093Z,97107.25
2022-12-01T08:23:42.401Z,97108.09
2022-12-01T08:26:13.252Z,97105.41
2022-12-01T08:28:40.980Z,97104.72
2022-12-01T08:31:24.289Z,97107.38
2022-12-01T08:33:52.250Z,97098.63
2022-12-01T08:36:20.931Z,97100.09
2022-12-01T08:38:51.075Z,97105.91
2022-12-01T08:41:19.630Z,97093.25
2022-12-01T08:43:57.859Z,97103.13
2022-12-01T08:46:26.956Z,97113.50
2022-12-01T08:48:55.282Z,97115.88
2022-12-01T08:51:22.601Z,97109.78
2022-12-01T08:53:50.498Z,97115.16
2022-12-01T08:56:24.567Z,97111.75
2022-12-01T08:58:52.189Z,97105.63
2022-12-01T09:01:19.964Z,97103.72
2022-12-01T09:03:47.185Z,97101.50
2022-12-01T09:06:20.943Z,97111.03
2022-12-01T09:08:48.741Z,97114.91
2022-12-01T09:11:18.182Z,97110.22
2022-12-01T09:13:52.951Z,97109.53
2022-12-01T09:16:21.754Z,97118.41
2022-12-01T09:18:49.485Z,97106.59
2022-12-01T09:21:20.126Z,97109.31
2022-12-01T09:23:48.091Z,97111.25
2022-12-01T09:26:18.796Z,97110.97
2022-12-01T09:28:47.645Z,97109.47
2022-12-01T09:31:16.758Z,97120.94
2022-12-01T09:33:44.413Z,97119.00
2022-12-01T09:36:12.124Z,97116.31
2022-12-01T09:38:39.837Z,97119.00
2022-12-01T09:41:33.365Z,97124.34
2022-12-01T09:44:06.233Z,97116.00
2022-12-01T09:46:41.559Z,97119.00
2022-12-01T09:49:19.116Z,97109.47
2022-12-01T09:51:46.574Z,97108.72
2022-12-01T09:54:14.911Z,97106.03
2022-12-01T09:56:49.698Z,97105.28
2022-12-01T09:59:25.495Z,97103.75
2022-12-01T10:01:59.539Z,97106.44
2022-12-01T10:04:41.653Z,97104.50
2022-12-01T10:07:20.998Z,97098.41
2022-12-01T10:09:52.490Z,97084.66
2022-12-01T10:12:28.120Z,97098.03
2022-12-01T10:15:13.285Z,97093.81
2022-12-01T10:18:10.831Z,97095.38
2022-12-01T10:21:10.364Z,97085.38
2022-12-01T10:23:43.693Z,97078.81
2022-12-01T10:26:16.989Z,97085.78
2022-12-01T10:29:10.020Z,97080.41
2022-12-01T10:31:56.233Z,97085.00
2022-12-01T10:34:43.585Z,97086.94
2022-12-01T10:37:20.733Z,97078.91
2022-12-01T10:39:50.871Z,97073.91
2022-12-01T10:42:40.822Z,97084.59
2022-12-01T10:45:20.494Z,97071.63
2022-12-01T10:48:15.899Z,97082.69
2022-12-01T10:50:45.387Z,97076.13
2022-12-01T10:53:25.525Z,97074.56
2022-12-01T10:55:59.540Z,97072.25
2022-12-01T10:58:27.024Z,97073.47
2022-12-01T11:01:04.870Z,97069.28
2022-12-01T11:03:35.295Z,97063.50
2022-12-01T11:06:05.632Z,97062.00
2022-12-01T11:08:56.791Z,97057.38
2022-12-01T11:11:31.518Z,97059.34
2022-12-01T11:14:02.745Z,97057.34
2022-12-01T11:16:37.898Z,97056.50
2022-12-01T11:19:25.313Z,97048.94
2022-12-01T11:22:00.007Z,97057.75
2022-12-01T11:24:43.642Z,97053.53
2022-12-01T11:27:23.950Z,97048.53
2022-12-01T11:29:55.308Z,97045.09
2022-12-01T11:32:29.057Z,97036.72
2022-12-01T11:35:17.087Z,97046.63
2022-12-01T11:38:13.271Z,97035.56
2022-12-01T11:40:50.672Z,97036.66
2022-12-01T11:43:29.769Z,97030.38
2022-12-01T11:46:01.211Z,97031.63
2022-12-01T11:48:31.109Z,97030.13
2022-12-01T11:51:13.120Z,97034.66
2022-12-01T11:53:44.143Z,97024.34
2022-12-01T11:56:28.974Z,97024.34
2022-12-01T11:59:26.879Z,97028.47
2022-12-01T12:02:08.950Z,97021.25
2022-12-01T12:05:09.351Z,97023.47
2022-12-01T12:08:04.708Z,97012.38
2022-12-01T12:10:40.964Z,97016.25
2022-12-01T12:13:29.521Z,97015.41
2022-12-01T12:16:26.400Z,97009.72
2022-12-01T12:19:33.814Z,97008.94
2022-12-01T12:22:45.841Z,96997.84
2022-12-01T12:25:30.050Z,97005.88
2022-12-01T12:28:31.194Z,97004.72
2022-12-01T12:31:11.657Z,97004.72
2022-12-01T12:33:58.092Z,96988.63
2022-12-01T12:36:57.732Z,96996.66
2022-12-01T12:39:32.560Z,96991.31
2022-12-01T12:42:07.738Z,96990.16
2022-12-01T12:44:50.862Z,96984.84
2022-12-01T12:47:23.586Z,96987.88
2022-12-01T12:50:15.259Z,96995.00
2022-12-01T12:52:46.743Z,96988.22
2022-12-01T12:55:23.414Z,96992.38
2022-12-01T12:58:07.924Z,96979.47
2022-12-01T13:00:44.299Z,96979.47
2022-12-01T13:03:20.591Z,96979.06
2022-12-01T13:06:02.728Z,96982.59
2022-12-01T13:08:38.827Z,96976.06
2022-12-01T13:11:30.837Z,96976.31
2022-12-01T13:14:05.350Z,96969.53
2022-12-01T13:16:46.360Z,96971.53
2022-12-01T13:19:23.976Z,96968.19
2022-12-01T13:21:53.194Z,96968.19
2022-12-01T13:24:29.916Z,96970.84
2022-12-01T13:26:59.699Z,96964.34
2022-12-01T13:29:29.270Z,96966.31
2022-12-01T13:31:56.591Z,96959.47
2022-12-01T13:34:38.090Z,96959.78
2022-12-01T13:37:05.743Z,96956.44
2022-12-01T13:39:37.645Z,96948.75
2022-12-01T13:42:27.310Z,96953.41
2022-12-01T13:45:07.382Z,96948.06
2022-12-01T13:47:37.592Z,96946.63
2022-12-01T13:50:54.100Z,96951.56
2022-12-01T13:53:23.564Z,96950.41
2022-12-01T13:56:04.238Z,96950.00
2022-12-01T13:58:34.410Z,96949.25
2022-12-01T14:01:20.769Z,96938.59
2022-12-01T14:03:57.027Z,96942.69
2022-12-01T14:06:38.607Z,96946.50
2022-12-01T14:09:17.941Z,96943.47
2022-12-01T14:12:03.230Z,96948.91
2022-12-01T14:14:43.639Z,96947.38
2022-12-01T14:17:35.041Z,96942.44
2022-12-01T14:20:23.319Z,96932.16
2022-12-01T14:23:11.157Z,96942.78
2022-12-01T14:25:39.660Z,96940.19
2022-12-01T14:28:15.952Z,96944.38
2022-12-01T14:30:45.283Z,96935.66
2022-12-01T14:33:39.865Z,96935.31
2022-12-01T14:36:10.561Z,96934.88
2022-12-01T14:38:38.202Z,96934.97
2022-12-01T14:41:11.257Z,96936.91
2022-12-01T14:44:00.291Z,96935.66
2022-12-01T14:46:32.446Z,96934.56
2022-12-01T14:48:59.573Z,96934.22
2022-12-01T14:51:36.331Z,96935.72
2022-12-01T14:54:15.140Z,96929.88
2022-12-01T14:56:44.116Z,96932.66
2022-12-01T14:59:26.488Z,96936.84
2022-12-01T15:01:58.529Z,96937.16
2022-12-01T15:04:26.394Z,96936.09
2022-12-01T15:06:56.562Z,96935.72
2022-12-01T15:09:33.488Z,96931.13
2022-12-01T15:12:05.056Z,96929.63
2022-12-01T15:14:47.877Z,96932.66
2022-12-01T15:17:33.052Z,96925.88
2022-12-01T15:20:01.251Z,96925.09
2022-12-01T15:22:31.675Z,96925.44
2022-12-01T15:25:15.977Z,96931.53
2022-12-01T15:27:43.943Z,96923.50
2022-12-01T15:30:21.104Z,96923.09
2022-12-01T15:32:48.433Z,96926.53
2022-12-01T15:35:20.558Z,96927.97
2022-12-01T15:37:48.131Z,96919.19
2022-12-01T15:43:20.146Z,96920.28
2022-12-01T15:45:49.714Z,96930.66
2022-12-01T15:48:25.829Z,96916.22
2022-12-01T15:51:17.817Z,96913.47
2022-12-01T15:54:02.713Z,96914.22
2022-12-01T15:56:38.023Z,96917.75
2022-12-01T15:59:25.912Z,96929.97
2022-12-01T16:01:53.558Z,96931.53
2022-12-01T16:04:24.060Z,96924.25
2022-12-01T16:07:17.766Z,96919.00
2022-12-01T16:09:59.051Z,96919.66
2022-12-01T16:12:28.371Z,96917.75
2022-12-01T16:15:01.709Z,96917.06
2022-12-01T16:17:45.657Z,96916.38
2022-12-01T16:20:28.070Z,96923.59
2022-12-01T16:23:04.201Z,96926.59
2022-12-01T16:25:42.407Z,96927.44
2022-12-01T16:28:22.053Z,96924.75
2022-12-01T16:30:49.859Z,96926.34
2022-12-01T16:33:19.851Z,96932.13
2022-12-01T16:35:47.172Z,96920.66
2022-12-01T16:38:20.867Z,96928.69
2022-12-01T16:40:53.417Z,96930.25
2022-12-01T16:43:26.849Z,96920.38
2022-12-01T16:46:07.110Z,96923.13
2022-12-01T16:48:35.311Z,96927.28
2022-12-01T16:51:04.874Z,96931.56
2022-12-01T16:53:32.301Z,96928.91
2022-12-01T16:56:02.028Z,96930.13
2022-12-01T16:58:29.532Z,96928.34
2022-12-01T17:00:56.667Z,96930.66
2022-12-01T17:03:29.294Z,96930.34
2022-12-01T17:05:59.122Z,96930.75
2022-12-01T17:08:26.276Z,96930.75
2022-12-01T17:10:54.191Z,96927.75
2022-12-01T17:13:25.937Z,96936.19
2022-12-01T17:15:55.289Z,96940.38
2022-12-01T17:18:23.712Z,96941.53
2022-12-01T17:20:59.177Z,96946.13
2022-12-01T17:23:26.991Z,96943.84
2022-12-01T17:25:54.451Z,96949.22
2022-12-01T17:28:21.679Z,96952.31
2022-12-01T17:30:48.768Z,96956.06
2022-12-01T17:33:15.935Z,96955.31
2022-12-01T17:35:43.200Z,96961.34
2022-12-01T17:38:10.323Z,96961.78
2022-12-01T17:40:37.640Z,96966.69
2022-12-01T17:43:07.798Z,96962.78
2022-12-01T17:45:42.161Z,96964.31
2022-12-01T17:48:09.459Z,96968.41
2022-12-01T17:50:38.165Z,96967.53
2022-12-01T17:53:05.443Z,96959.84
2022-12-01T17:55:33.067Z,96953.81
2022-12-01T17:58:00.273Z,96963.63
2022-12-01T18:00:27.565Z,96955.19
2022-12-01T18:02:54.944Z,96955.53
2022-12-01T18:05:22.340Z,96968.84
2022-12-01T18:07:49.858Z,96959.66
2022-12-01T18:10:17.801Z,96964.25
2022-12-01T18:12:45.118Z,96953.84
2022-12-01T18:15:12.776Z,96952.38
2022-12-01T18:17:40.136Z,96948.84
2022-12-01T18:20:08.517Z,96944.59
2022-12-01T18:22:35.749Z,96956.03
2022-12-01T18:25:03.892Z,96957.91
2022-12-01T18:27:31.179Z,96963.28
2022-12-01T18:29:58.483Z,96961.34
2022-12-01T18:32:25.709Z,96955.59
2022-12-01T18:34:53.291Z,96967.47
2022-12-01T18:37:20.619Z,96966.69
2022-12-01T18:39:48.430Z,96960.59
2022-12-01T18:42:15.698Z,96965.59
2022-12-01T18:44:43.045Z,96961.75
2022-12-01T18:47:10.912Z,96955.22
2022-12-01T18:49:38.323Z,96968.22
2022-12-01T18:52:05.669Z,96960.94
2022-12-01T18:54:33.191Z,96963.53
2022-12-01T18:57:02.081Z,96962.03
2022-12-01T18:59:29.718Z,96962.78
2022-12-01T19:01:57.180Z,96968.13
2022-12-01T19:04:24.443Z,96968.13
2022-12-01T19:06:52.253Z,96974.56
2022-12-01T19:09:20.495Z,96972.25
2022-12-01T19:11:48.999Z,96972.66
2022-12-01T19:14:19.231Z,96975.69
2022-12-01T19:16:48.083Z,96978.34
2022-12-01T19:19:16.774Z,96969.22
2022-12-01T19:21:46.074Z,96968.97
2022-12-01T19:24:14.689Z,96969.97
2022-12-01T19:26:43.586Z,96964.22
2022-12-01T19:29:13.698Z,96967.28
2022-12-01T19:31:42.071Z,96966.22
2022-12-01T19:34:10.958Z,96964.34
2022-12-01T19:36:39.235Z,96965.09
2022-12-01T19:39:07.875Z,96966.28
2022-12-01T19:41:39.246Z,96954.81
2022-12-01T19:44:07.522Z,96967.78
2022-12-01T19:46:35.949Z,96959.84
2022-12-01T19:49:05.168Z,96959.91
2022-12-01T19:51:38.172Z,96958.72
2022-12-01T19:54:08.760Z,96956.22
2022-12-01T19:56:36.454Z,96956.97
2022-12-01T19:59:05.100Z,96959.38
2022-12-01T20:01:32.759Z,96954.06
2022-12-01T20:04:00.867Z,96960.63
2022-12-01T20:06:31.765Z,96958.00
2022-12-01T20:09:07.834Z,96954.97
2022-12-01T20:11:37.426Z,96953.38
2022-12-01T20:14:08.395Z,96957.22
2022-12-01T20:16:41.590Z,96958.47
2022-12-01T20:19:09.661Z,96953.88
2022-12-01T20:21:42.870Z,96948.13
2022-12-01T20:24:17.993Z,96953.13
2022-12-01T20:26:58.017Z,96947.00
2022-12-01T20:29:29.334Z,96950.44
2022-12-01T20:31:59.721Z,96945.09
2022-12-01T20:34:32.160Z,96943.53
2022-12-01T20:37:00.809Z,96944.75
2022-12-01T20:39:32.836Z,96940.50
2022-12-01T20:42:01.135Z,96941.38
2022-12-01T20:44:29.222Z,96940.97
2022-12-01T20:46:59.691Z,96942.56
2022-12-01T20:49:30.448Z,96932.19
2022-12-01T20:51:58.905Z,96937.53
2022-12-01T20:54:29.121Z,96931.44
2022-12-01T20:56:58.405Z,96932.19
2022-12-01T20:59:26.573Z,96926.50
2022-12-01T21:01:53.848Z,96925.00
2022-12-01T21:04:21.336Z,96921.56
2022-12-01T21:06:50.272Z,96923.84
2022-12-01T21:09:18.257Z,96931.09
2022-12-01T21:12:08.731Z,96930.34
2022-12-01T21:15:10.544Z,96934.53
2022-12-01T21:17:44.290Z,96932.34
2022-12-01T21:20:23.727Z,96931.16
2022-12-01T21:22:53.714Z,96931.50
2022-12-01T21:25:23.650Z,96936.84
2022-12-01T21:27:51.943Z,96941.53
2022-12-01T21:30:22.296Z,96939.63
2022-12-01T21:32:50.402Z,96938.19
2022-12-01T21:35:25.136Z,96931.63
2022-12-01T21:38:07.304Z,96929.38
2022-12-01T21:40:34.661Z,96933.97
2022-12-01T21:43:22.782Z,96928.97
2022-12-01T21:46:03.338Z,96930.47
2022-12-01T21:48:36.768Z,96930.47
2022-12-01T21:51:25.213Z,96933.50
2022-12-01T21:53:56.060Z,96941.59
2022-12-01T21:56:28.953Z,96927.03
2022-12-01T21:58:59.479Z,96928.97
2022-12-01T22:01:35.514Z,96924.03
2022-12-01T22:04:13.191Z,96921.75
2022-12-01T22:06:43.912Z,96926.38
2022-12-01T22:09:36.038Z,96924.53
2022-12-01T22:12:12.851Z,96921.75
2022-12-01T22:14:40.206Z,96918.75
2022-12-01T22:17:07.137Z,96921.00
2022-12-01T22:19:38.175Z,96921.00
2022-12-01T22:22:11.628Z,96913.81
2022-12-01T22:24:42.004Z,96915.38
2022-12-01T22:27:12.179Z,96916.91
2022-12-01T22:29:46.065Z,96917.31
2022-12-01T22:32:12.995Z,96918.75
2022-12-01T22:34:49.552Z,96914.97
2022-12-01T22:37:23.500Z,96910.38
2022-12-01T22:39:54.868Z,96913.88
2022-12-01T22:42:33.292Z,96909.63
2022-12-01T22:45:23.928Z,96911.53
2022-12-01T22:47:51.816Z,96909.63
2022-12-01T22:50:50.094Z,96906.56
2022-12-01T22:53:27.145Z,96911.47
2022-12-01T22:55:56.823Z,96903.88
2022-12-01T22:58:25.072Z,96902.69
2022-12-01T23:00:52.844Z,96899.59
2022-12-01T23:03:20.267Z,96894.81
2022-12-01T23:05:54.489Z,96892.13
2022-12-01T23:08:22.982Z,96892.91
2022-12-01T23:10:50.993Z,96894.81
2022-12-01T23:13:24.981Z,96892.13
2022-12-01T23:15:54.285Z,96894.06
2022-12-01T23:18:30.038Z,96898.56
2022-12-01T23:20:59.235Z,96899.00
2022-12-01T23:23:29.600Z,96896.72
2022-12-01T23:25:57.714Z,96894.72
2022-12-01T23:28:25.575Z,96896.66
2022-12-01T23:30:56.609Z,96890.53
2022-12-01T23:33:26.210Z,96893.56
2022-12-01T23:35:55.958Z,96894.38
2022-12-01T23:38:32.000Z,96889.38
2022-12-01T23:41:01.634Z,96890.53
2022-12-01T23:43:35.870Z,96895.09
2022-12-01T23:46:07.683Z,96884.78
2022-12-01T23:48:39.731Z,96880.59
2022-12-01T23:51:23.213Z,96873.75
2022-12-01T23:53:52.556Z,96866.91
2022-12-01T23:56:21.932Z,96861.56
2022-12-01T23:58:50.220Z,96856.53
